Time;durP1;ratioP1;P1;durP2;ratioP2;P2;SDS_P1;SDS_P2;PMS_P1;PMS_P2;Temp;Humidity;BMP_temperature;BMP_pressure;BME280_temperature;BME280_humidity;BME280_pressure;Samples;Min_cycle;Max_cycle;Signal;HPM_P1;HPM_P2
2023/05/22 00:00:35;;;;;;;17.48;12.50;;;;;;;18.62;97.55;101096.03;4967592;28;20026;-72
2023/05/22 00:03:02;;;;;;;18.30;12.52;;;;;;;18.61;97.59;101089.97;4965505;28;20552;-73
2023/05/22 00:05:29;;;;;;;18.27;11.40;;;;;;;18.58;97.09;101106.13;4967668;28;20023;-72
2023/05/22 00:07:55;;;;;;;17.98;12.32;;;;;;;18.57;97.09;101108.94;4964064;28;20489;-72
2023/05/22 00:10:20;;;;;;;14.43;11.18;;;;;;;18.53;96.92;101095.41;4986893;28;20505;-72
2023/05/22 00:12:46;;;;;;;15.32;10.70;;;;;;;18.51;96.98;101100.06;4986031;28;20034;-72
2023/05/22 00:15:12;;;;;;;15.20;10.50;;;;;;;18.46;96.83;101092.00;4983831;28;20066;-72
2023/05/22 00:17:37;;;;;;;14.73;10.90;;;;;;;18.46;96.85;101092.81;4985121;28;20034;-72
2023/05/22 00:20:09;;;;;;;12.93;10.00;;;;;;;18.48;96.43;101105.72;4986285;28;20505;-72
2023/05/22 00:22:35;;;;;;;14.43;10.10;;;;;;;18.49;96.08;101099.47;4986002;28;20030;-72
2023/05/22 00:25:05;;;;;;;17.10;10.48;;;;;;;18.43;95.93;101093.19;4985190;28;20417;-72
2023/05/22 00:27:32;;;;;;;13.23;9.25;;;;;;;18.39;95.69;101091.19;4983420;28;20042;-72
2023/05/22 00:29:58;;;;;;;12.30;9.02;;;;;;;18.36;95.66;101084.50;4984958;28;20137;-72
2023/05/22 00:32:24;;;;;;;15.15;9.82;;;;;;;18.34;95.40;101086.53;4998380;28;20023;-72
2023/05/22 00:34:50;;;;;;;12.80;9.50;;;;;;;18.32;95.42;101083.28;4975308;28;20046;-73
2023/05/22 00:37:18;;;;;;;14.35;8.98;;;;;;;18.32;95.27;101080.66;4986258;28;20104;-72
2023/05/22 00:39:44;;;;;;;14.15;9.52;;;;;;;18.31;95.05;101079.06;4985701;28;20142;-72
2023/05/22 00:42:09;;;;;;;11.65;8.48;;;;;;;18.28;94.72;101075.00;4965628;28;20030;-72
2023/05/22 00:44:35;;;;;;;12.60;9.18;;;;;;;18.27;94.64;101068.16;4974503;28;20101;-72
2023/05/22 00:47:01;;;;;;;11.85;8.35;;;;;;;18.27;94.43;101068.16;4984369;28;20033;-72
2023/05/22 00:49:26;;;;;;;14.07;8.20;;;;;;;18.26;94.34;101066.53;4986725;28;20054;-72
2023/05/22 00:51:52;;;;;;;10.60;8.10;;;;;;;18.22;94.17;101062.69;4981674;28;20027;-72
2023/05/22 00:54:17;;;;;;;12.30;8.80;;;;;;;18.22;94.03;101067.13;4967496;28;20133;-73
2023/05/22 00:56:43;;;;;;;10.95;8.45;;;;;;;18.22;93.96;101064.50;4968842;28;20034;-72
2023/05/22 00:59:09;;;;;;;10.80;7.70;;;;;;;18.20;93.92;101071.78;4973776;28;20550;-72
2023/05/22 01:01:37;;;;;;;15.23;7.65;;;;;;;18.17;94.00;101072.97;4979697;28;20113;-72
2023/05/22 01:04:09;;;;;;;12.20;7.47;;;;;;;18.16;94.08;101081.03;4979158;28;20046;-72
2023/05/22 01:06:35;;;;;;;9.27;7.20;;;;;;;18.15;93.97;101084.69;4979775;28;20561;-72
2023/05/22 01:09:00;;;;;;;10.57;8.00;;;;;;;18.09;94.26;101076.59;4970647;28;20054;-72
2023/05/22 01:11:52;;;;;;;11.88;8.80;;;;;;;18.02;94.96;101070.50;4999807;28;20061;-72
2023/05/22 01:14:27;;;;;;;12.18;7.78;;;;;;;18.00;95.19;101072.53;4980164;28;20046;-72
2023/05/22 01:17:00;;;;;;;12.80;8.65;;;;;;;17.98;95.26;101076.38;4968014;28;20032;-72
2023/05/22 01:20:00;;;;;;;11.88;8.32;;;;;;;17.97;95.17;101080.81;4974772;28;20055;-72
2023/05/22 01:22:57;;;;;;;12.20;8.00;;;;;;;17.94;95.13;101069.91;4985058;28;20507;-72
2023/05/22 01:25:28;;;;;;;10.73;8.15;;;;;;;17.92;95.20;101072.72;4962169;28;20153;-72
2023/05/22 01:28:20;;;;;;;11.63;7.65;;;;;;;17.90;95.12;101070.28;4942576;28;20094;-73
2023/05/22 01:30:59;;;;;;;12.38;7.97;;;;;;;17.89;95.08;101070.47;5003595;28;20057;-72
2023/05/22 01:33:27;;;;;;;9.60;7.47;;;;;;;17.82;95.32;101070.44;5001533;28;20064;-72
2023/05/22 01:35:56;;;;;;;11.57;7.57;;;;;;;17.78;95.89;101065.78;4970932;28;20440;-72
2023/05/22 01:38:21;;;;;;;13.63;8.10;;;;;;;17.74;96.18;101065.34;5001813;28;20465;-72
2023/05/22 01:40:47;;;;;;;13.35;7.70;;;;;;;17.73;96.39;101069.00;4988466;28;20088;-73
2023/05/22 01:43:16;;;;;;;12.07;8.07;;;;;;;17.74;96.11;101069.81;4969612;28;20042;-72
2023/05/22 01:45:43;;;;;;;10.55;8.23;;;;;;;17.71;96.28;101065.78;4986886;28;20049;-72
2023/05/22 01:48:11;;;;;;;12.30;8.30;;;;;;;17.68;96.29;101069.56;4979623;28;20489;-73
2023/05/22 01:50:39;;;;;;;10.07;7.68;;;;;;;17.68;96.38;101071.41;4971682;28;20022;-72
2023/05/22 01:53:14;;;;;;;11.10;8.13;;;;;;;17.65;96.22;101058.66;4981879;28;20030;-73
2023/05/22 01:55:49;;;;;;;10.88;7.85;;;;;;;17.62;96.51;101059.88;4991534;28;20038;-72
2023/05/22 01:58:31;;;;;;;10.43;7.78;;;;;;;17.62;96.37;101067.75;4999544;28;20501;-73
2023/05/22 02:01:00;;;;;;;12.55;7.55;;;;;;;17.64;96.19;101072.81;4949958;28;20031;-72
2023/05/22 02:03:35;;;;;;;11.40;7.78;;;;;;;17.60;96.13;101064.50;4976496;28;20318;-73
2023/05/22 02:06:05;;;;;;;10.40;7.55;;;;;;;17.59;96.16;101062.88;4988573;28;20073;-72
2023/05/22 02:08:31;;;;;;;9.95;7.95;;;;;;;17.57;96.11;101072.75;4993197;28;20037;-73
2023/05/22 02:10:59;;;;;;;11.60;7.55;;;;;;;17.55;96.40;101059.03;4967445;28;20074;-72
2023/05/22 02:13:25;;;;;;;14.13;8.25;;;;;;;17.49;96.78;101058.00;4968573;28;20137;-73
2023/05/22 02:15:51;;;;;;;12.88;8.63;;;;;;;17.48;96.99;101064.28;5003509;28;20034;-72
2023/05/22 02:18:17;;;;;;;13.88;9.10;;;;;;;17.46;96.98;101060.22;4967885;28;20125;-72
2023/05/22 02:20:45;;;;;;;14.55;8.05;;;;;;;17.42;97.13;101056.38;4987360;28;20039;-72
2023/05/22 02:23:10;;;;;;;15.75;8.07;;;;;;;17.35;97.64;101060.75;5002807;28;20038;-72
2023/05/22 02:25:36;;;;;;;14.50;8.80;;;;;;;17.30;97.93;101048.25;4986894;28;20034;-72
2023/05/22 02:28:02;;;;;;;11.38;8.35;;;;;;;17.29;98.08;101051.88;4998872;28;20035;-72
2023/05/22 02:30:27;;;;;;;12.60;9.07;;;;;;;17.28;97.87;101051.06;4987048;28;20030;-72
2023/05/22 02:32:56;;;;;;;13.20;9.20;;;;;;;17.25;97.79;101046.22;4986552;28;20489;-73
2023/05/22 02:35:22;;;;;;;12.60;9.07;;;;;;;17.23;97.80;101050.81;4979889;28;20057;-72
2023/05/22 02:37:47;;;;;;;13.55;9.07;;;;;;;17.19;98.15;101051.41;4986338;28;20070;-73
2023/05/22 02:40:14;;;;;;;17.27;9.32;;;;;;;17.14;98.24;101052.00;4986554;28;20041;-72
2023/05/22 02:42:39;;;;;;;15.10;10.05;;;;;;;17.11;98.66;101049.78;4986675;28;20035;-72
2023/05/22 02:45:05;;;;;;;13.52;10.10;;;;;;;17.07;98.85;101049.34;4954252;28;20062;-72
2023/05/22 02:47:31;;;;;;;16.02;10.02;;;;;;;17.05;99.13;101048.72;4966764;28;20023;-72
2023/05/22 02:49:57;;;;;;;14.80;10.23;;;;;;;17.04;99.20;101052.34;4984209;28;20413;-72
2023/05/22 02:52:23;;;;;;;13.63;10.40;;;;;;;17.00;99.43;101053.72;4984119;28;20022;-72
2023/05/22 02:54:49;;;;;;;16.95;9.77;;;;;;;16.98;99.77;101050.50;4968323;28;20039;-72
2023/05/22 02:57:14;;;;;;;16.25;10.40;;;;;;;16.95;99.95;101045.63;4966969;28;20419;-72
2023/05/22 02:59:40;;;;;;;17.00;11.05;;;;;;;16.93;99.94;101050.25;4982226;28;20045;-72
2023/05/22 03:02:05;;;;;;;14.02;9.93;;;;;;;16.88;99.79;101048.22;4988018;28;20030;-72
2023/05/22 03:04:31;;;;;;;17.58;10.93;;;;;;;16.86;100.00;101049.44;4985443;28;20042;-72
2023/05/22 03:06:57;;;;;;;14.82;9.93;;;;;;;16.82;100.00;101043.75;4985300;28;20038;-72
2023/05/22 03:09:24;;;;;;;17.27;10.25;;;;;;;16.79;100.00;101044.09;4969747;28;20437;-72
2023/05/22 03:11:49;;;;;;;21.35;10.93;;;;;;;16.73;100.00;101037.00;4986687;28;20045;-72
2023/05/22 03:14:15;;;;;;;17.38;11.32;;;;;;;16.67;100.00;101041.19;5001497;28;20046;-72
2023/05/22 03:16:40;;;;;;;20.35;12.13;;;;;;;16.57;100.00;101043.31;5001164;28;20030;-72
2023/05/22 03:19:08;;;;;;;21.60;12.95;;;;;;;16.47;100.00;101048.88;4985545;28;20067;-72
2023/05/22 03:21:34;;;;;;;18.58;12.20;;;;;;;16.41;100.00;101044.41;4987852;28;20030;-72
2023/05/22 03:24:00;;;;;;;23.23;14.13;;;;;;;16.37;100.00;101056.25;4984639;28;20448;-72
2023/05/22 03:26:27;;;;;;;22.48;15.48;;;;;;;16.37;100.00;101044.97;4978013;28;20468;-72
2023/05/22 03:28:54;;;;;;;25.20;15.85;;;;;;;16.36;100.00;101049.38;4982528;28;20049;-72
2023/05/22 03:31:20;;;;;;;21.45;14.02;;;;;;;16.35;100.00;101050.41;4985877;28;20057;-72
2023/05/22 03:33:58;;;;;;;24.10;15.20;;;;;;;16.35;100.00;101047.78;4985013;28;20061;-72
2023/05/22 03:36:24;;;;;;;25.77;15.82;;;;;;;16.33;100.00;101052.38;4985967;28;20030;-72
2023/05/22 03:38:50;;;;;;;24.48;15.15;;;;;;;16.33;100.00;101055.00;4980459;28;20370;-72
2023/05/22 03:41:16;;;;;;;23.13;14.90;;;;;;;16.32;100.00;101048.16;4987690;28;20388;-72
2023/05/22 03:43:41;;;;;;;22.38;14.77;;;;;;;16.31;100.00;101049.13;4984408;28;20543;-72
2023/05/22 03:46:09;;;;;;;25.02;14.30;;;;;;;16.28;100.00;101052.94;4981600;28;20038;-72
2023/05/22 03:48:35;;;;;;;28.13;16.60;;;;;;;16.25;100.00;101055.13;5001272;28;20042;-72
2023/05/22 03:51:00;;;;;;;23.98;16.70;;;;;;;16.20;100.00;101049.63;4981092;28;20040;-72
2023/05/22 03:53:26;;;;;;;25.40;17.00;;;;;;;16.13;100.00;101047.78;4981516;28;20038;-72
2023/05/22 03:55:52;;;;;;;26.42;16.70;;;;;;;16.08;100.00;101047.50;4977058;28;20112;-72
2023/05/22 03:58:17;;;;;;;27.02;17.67;;;;;;;16.08;100.00;101054.56;4984795;28;20061;-72
2023/05/22 04:00:45;;;;;;;30.85;20.15;;;;;;;16.04;100.00;101056.72;4969350;28;20031;-72
2023/05/22 04:03:11;;;;;;;31.23;18.42;;;;;;;15.99;100.00;101056.47;4985248;28;20034;-72
2023/05/22 04:05:40;;;;;;;30.98;19.73;;;;;;;15.94;100.00;101051.81;4985131;28;20034;-72
2023/05/22 04:08:06;;;;;;;32.35;20.88;;;;;;;15.90;100.00;101050.56;4967407;28;20045;-72
2023/05/22 04:10:31;;;;;;;35.60;19.35;;;;;;;15.89;100.00;101056.78;4989688;28;20022;-72
2023/05/22 04:12:57;;;;;;;34.75;22.75;;;;;;;15.89;100.00;101050.75;4984832;28;20065;-72
2023/05/22 04:15:23;;;;;;;40.03;23.20;;;;;;;15.85;100.00;101057.34;4982960;28;20015;-72
2023/05/22 04:17:50;;;;;;;37.80;23.23;;;;;;;15.84;100.00;101056.53;5009151;23;20129;-69
2023/05/22 04:20:15;;;;;;;37.47;20.73;;;;;;;15.80;100.00;101057.06;5000424;28;20491;-69
2023/05/22 04:22:41;;;;;;;34.50;21.98;;;;;;;15.80;100.00;101059.69;5002694;28;20045;-70
2023/05/22 04:25:08;;;;;;;35.13;21.45;;;;;;;15.76;100.00;101060.06;5015093;28;20052;-69
2023/05/22 04:27:34;;;;;;;36.45;22.55;;;;;;;15.75;100.00;101068.91;5003142;28;20446;-69
2023/05/22 04:30:01;;;;;;;40.45;23.52;;;;;;;15.71;100.00;101065.00;4984551;28;20054;-69
2023/05/22 04:32:28;;;;;;;39.80;23.75;;;;;;;15.72;100.00;101055.34;4984974;28;20027;-69
2023/05/22 04:34:53;;;;;;;38.78;23.83;;;;;;;15.76;100.00;101060.06;4986614;28;20112;-69
2023/05/22 04:37:19;;;;;;;39.28;24.60;;;;;;;15.75;100.00;101063.66;4987315;28;20034;-70
2023/05/22 04:39:45;;;;;;;36.90;23.70;;;;;;;15.75;100.00;101066.28;5001687;28;20034;-69
2023/05/22 04:42:14;;;;;;;39.88;23.67;;;;;;;15.75;100.00;101066.28;5006114;28;20081;-69
2023/05/22 04:44:43;;;;;;;42.15;23.65;;;;;;;15.71;100.00;101070.22;5005013;28;20049;-70
2023/05/22 04:47:10;;;;;;;42.47;26.80;;;;;;;15.69;100.00;101072.22;5010661;28;20033;-69
2023/05/22 04:49:41;;;;;;;46.17;27.08;;;;;;;15.71;100.00;101080.69;5004383;28;20041;-70
2023/05/22 04:52:07;;;;;;;42.78;26.20;;;;;;;15.72;100.00;101074.47;5008169;28;20499;-69
2023/05/22 04:54:33;;;;;;;44.72;24.70;;;;;;;15.73;100.00;101070.88;5012733;28;20044;-69
2023/05/22 04:57:01;;;;;;;44.60;26.48;;;;;;;15.74;100.00;101082.94;5004957;28;20104;-69
2023/05/22 04:59:27;;;;;;;37.53;23.15;;;;;;;15.70;100.00;101070.41;5007749;28;20038;-69
2023/05/22 05:01:52;;;;;;;52.53;30.33;;;;;;;15.74;100.00;101080.34;5008346;28;20022;-69
2023/05/22 05:04:17;;;;;;;47.15;26.75;;;;;;;15.71;100.00;101075.47;5021837;28;20050;-69
2023/05/22 05:06:43;;;;;;;54.30;30.63;;;;;;;15.76;100.00;101077.53;5021269;28;20045;-69
2023/05/22 05:09:09;;;;;;;49.17;28.42;;;;;;;15.72;100.00;101081.50;5007215;28;20056;-69
2023/05/22 05:11:35;;;;;;;53.90;29.08;;;;;;;15.68;100.00;101075.81;4995344;28;20571;-69
2023/05/22 05:14:01;;;;;;;55.38;29.65;;;;;;;15.66;100.00;101080.41;5002421;28;20057;-69
2023/05/22 05:16:27;;;;;;;67.53;35.30;;;;;;;15.61;100.00;101072.31;4999289;28;20123;-69
2023/05/22 05:18:54;;;;;;;59.28;30.27;;;;;;;15.67;100.00;101076.81;4989856;28;20656;-69
2023/05/22 05:21:20;;;;;;;61.40;31.40;;;;;;;15.69;100.00;101079.22;5025002;28;20033;-69
2023/05/22 05:23:46;;;;;;;61.78;34.30;;;;;;;15.64;100.00;101087.63;4996431;28;20467;-69
2023/05/22 05:26:13;;;;;;;62.97;32.45;;;;;;;15.65;100.00;101091.88;5005070;28;20489;-69
2023/05/22 05:28:39;;;;;;;59.15;32.47;;;;;;;15.64;100.00;101095.47;5006149;28;20053;-69
2023/05/22 05:31:06;;;;;;;56.55;30.65;;;;;;;15.64;100.00;101092.88;4971027;28;20408;-69
2023/05/22 05:33:48;;;;;;;62.60;32.92;;;;;;;15.71;100.00;101099.00;4988544;28;20080;-69
2023/05/22 05:36:27;;;;;;;63.15;31.67;;;;;;;15.74;100.00;101095.22;4977909;28;20447;-69
2023/05/22 05:38:53;;;;;;;61.17;31.83;;;;;;;15.85;100.00;101094.75;4984714;28;23265;-69
2023/05/22 05:41:20;;;;;;;61.10;31.58;;;;;;;15.87;100.00;101091.97;4986285;28;20026;-69
2023/05/22 05:43:51;;;;;;;67.53;32.97;;;;;;;15.89;100.00;101097.81;4975047;28;20058;-70
2023/05/22 05:46:18;;;;;;;60.72;31.38;;;;;;;15.93;100.00;101102.47;4974231;28;20022;-69
2023/05/22 05:48:44;;;;;;;63.33;32.63;;;;;;;15.99;100.00;101093.09;4995331;28;20517;-69
2023/05/22 05:51:10;;;;;;;61.67;31.77;;;;;;;16.02;100.00;101099.78;5002541;28;20034;-69
2023/05/22 05:53:41;;;;;;;60.75;33.05;;;;;;;16.04;100.00;101098.59;4990083;28;20124;-69
2023/05/22 05:56:07;;;;;;;66.50;32.95;;;;;;;15.93;100.00;101102.47;4986365;28;20570;-69
2023/05/22 05:58:34;;;;;;;58.28;30.65;;;;;;;15.90;100.00;101112.53;5002042;28;20523;-69
2023/05/22 06:01:32;;;;;;;56.28;31.27;;;;;;;15.93;100.00;101106.91;5010053;28;20120;-69
2023/05/22 06:04:01;;;;;;;60.35;32.28;;;;;;;15.98;100.00;101106.38;5007267;28;20050;-69
2023/05/22 06:06:34;;;;;;;59.13;29.45;;;;;;;15.92;100.00;101103.50;4981764;28;20026;-69
2023/05/22 06:09:09;;;;;;;63.00;31.35;;;;;;;15.90;100.00;101102.88;4985743;28;20051;-69
2023/05/22 06:11:49;;;;;;;56.90;30.05;;;;;;;15.95;100.00;101104.91;4975599;28;20030;-69
2023/05/22 06:14:14;;;;;;;57.13;30.63;;;;;;;16.14;100.00;101108.75;4984577;28;20050;-69
2023/05/22 06:16:40;;;;;;;61.65;31.70;;;;;;;16.06;100.00;101101.81;5003393;28;20239;-69
2023/05/22 06:19:06;;;;;;;58.40;31.60;;;;;;;15.94;100.00;101108.53;4996785;28;20427;-69
2023/05/22 06:21:31;;;;;;;55.03;29.35;;;;;;;16.11;100.00;101104.69;5012336;28;20029;-69
2023/05/22 06:23:57;;;;;;;52.55;29.23;;;;;;;16.18;100.00;101106.56;4988686;28;20373;-69
2023/05/22 06:26:24;;;;;;;51.85;28.63;;;;;;;16.21;100.00;101101.78;4999934;28;20034;-69
2023/05/22 06:28:50;;;;;;;55.45;27.77;;;;;;;16.23;100.00;101109.44;4994674;28;20161;-69
2023/05/22 06:31:17;;;;;;;50.83;28.45;;;;;;;16.25;100.00;101108.25;4989047;28;20022;-69
2023/05/22 06:33:45;;;;;;;52.85;27.67;;;;;;;16.26;100.00;101112.50;5002949;28;20402;-69
2023/05/22 06:36:11;;;;;;;57.17;30.30;;;;;;;16.24;100.00;101113.69;4991139;28;20070;-69
2023/05/22 06:38:36;;;;;;;50.95;27.60;;;;;;;16.29;100.00;101116.53;4981270;28;20054;-69
2023/05/22 06:41:04;;;;;;;47.45;26.27;;;;;;;16.32;100.00;101122.22;5004792;28;20044;-69
2023/05/22 06:43:30;;;;;;;50.30;27.92;;;;;;;16.39;100.00;101118.84;4991029;28;20061;-69
2023/05/22 06:46:11;;;;;;;52.30;29.40;;;;;;;16.41;100.00;101125.53;4978882;28;20037;-69
2023/05/22 06:48:39;;;;;;;48.00;25.88;;;;;;;16.48;100.00;101128.19;5001997;28;20119;-69
2023/05/22 06:51:23;;;;;;;43.05;24.48;;;;;;;16.50;100.00;101134.06;4987438;28;20038;-69
2023/05/22 06:53:51;;;;;;;52.20;28.98;;;;;;;16.54;100.00;101140.56;4987179;28;20093;-69
2023/05/22 06:56:21;;;;;;;48.03;28.58;;;;;;;16.58;100.00;101138.38;4986998;28;20492;-69
2023/05/22 06:58:57;;;;;;;47.88;27.15;;;;;;;16.54;100.00;101143.97;4986023;28;20082;-69
2023/05/22 07:01:36;;;;;;;44.17;26.63;;;;;;;16.60;100.00;101137.19;4991080;28;20026;-69
2023/05/22 07:04:08;;;;;;;52.60;27.73;;;;;;;16.67;100.00;101142.47;4999184;28;20046;-70
2023/05/22 07:06:54;;;;;;;45.63;26.02;;;;;;;16.82;100.00;101137.16;5006831;28;20038;-69
2023/05/22 07:09:20;;;;;;;49.58;27.52;;;;;;;16.95;100.00;101146.97;5003969;28;20046;-69
2023/05/22 07:11:47;;;;;;;48.15;27.30;;;;;;;17.05;100.00;101144.84;5008881;28;20607;-69
2023/05/22 07:14:14;;;;;;;50.03;25.55;;;;;;;17.09;100.00;101144.28;5001724;28;20049;-69
2023/05/22 07:16:41;;;;;;;56.20;30.73;;;;;;;17.07;100.00;101148.88;5022207;28;20492;-69
2023/05/22 07:19:07;;;;;;;49.70;27.65;;;;;;;17.14;100.00;101154.19;4986779;28;20057;-69
2023/05/22 07:21:34;;;;;;;48.17;28.08;;;;;;;17.20;100.00;101156.03;5003553;28;20034;-69
2023/05/22 07:24:08;;;;;;;47.25;27.13;;;;;;;17.12;100.00;101156.16;5005929;28;20129;-69
2023/05/22 07:26:37;;;;;;;50.78;28.63;;;;;;;17.32;100.00;101151.88;5006987;28;20037;-69
2023/05/22 07:29:06;;;;;;;50.17;29.02;;;;;;;17.32;100.00;101164.19;5007685;28;20099;-69
2023/05/22 07:31:33;;;;;;;54.38;29.27;;;;;;;17.29;100.00;101165.38;5021775;28;20030;-69
2023/05/22 07:34:00;;;;;;;51.15;29.33;;;;;;;17.30;100.00;101159.13;4990186;28;20124;-69
2023/05/22 07:36:27;;;;;;;57.50;29.23;;;;;;;17.34;100.00;101166.63;5007633;28;20030;-69
2023/05/22 07:38:53;;;;;;;50.80;28.17;;;;;;;17.46;100.00;101168.50;4990251;28;20104;-69
2023/05/22 07:41:18;;;;;;;48.22;27.05;;;;;;;17.44;100.00;101174.94;5022436;28;20041;-69
2023/05/22 07:43:44;;;;;;;43.45;25.58;;;;;;;17.45;100.00;101173.94;5004158;28;20041;-70
2023/05/22 07:46:14;;;;;;;44.28;25.98;;;;;;;17.48;100.00;101176.19;5006515;28;20033;-69
2023/05/22 07:48:55;;;;;;;43.08;26.95;;;;;;;17.51;100.00;101173.16;5026265;28;20038;-69
2023/05/22 07:51:21;;;;;;;57.90;29.10;;;;;;;17.64;100.00;101170.63;4988605;28;20076;-69
2023/05/22 07:53:49;;;;;;;54.92;28.63;;;;;;;17.74;98.89;101174.69;5007361;28;20104;-69
2023/05/22 07:56:16;;;;;;;48.50;28.52;;;;;;;17.57;98.04;101177.63;5008462;28;20037;-69
2023/05/22 07:58:42;;;;;;;49.08;27.73;;;;;;;17.61;98.44;101181.50;5019162;28;20064;-69
2023/05/22 08:01:08;;;;;;;49.40;30.95;;;;;;;17.57;99.25;101184.69;5022764;28;20034;-69
2023/05/22 08:03:34;;;;;;;53.85;29.02;;;;;;;17.73;98.60;101178.34;5009764;28;20045;-69
2023/05/22 08:05:59;;;;;;;52.05;29.35;;;;;;;17.56;98.19;101183.09;5006190;28;20462;-69
2023/05/22 08:08:25;;;;;;;49.38;29.10;;;;;;;17.54;97.75;101185.06;5006293;28;20411;-69
2023/05/22 08:10:50;;;;;;;54.28;29.60;;;;;;;17.58;97.63;101187.13;5005814;28;20323;-69
2023/05/22 08:13:17;;;;;;;59.67;30.00;;;;;;;17.64;97.45;101186.34;5004669;28;20037;-69
2023/05/22 08:15:43;;;;;;;49.28;27.25;;;;;;;17.71;97.76;101178.53;5003470;28;20036;-69
2023/05/22 08:18:08;;;;;;;52.80;30.02;;;;;;;17.61;97.63;101183.31;5002100;28;20049;-69
2023/05/22 08:20:34;;;;;;;65.55;31.83;;;;;;;17.60;96.96;101189.56;5009173;28;20037;-69
2023/05/22 08:22:59;;;;;;;53.63;28.10;;;;;;;17.65;96.64;101198.47;5004720;28;20405;-69
2023/05/22 08:25:25;;;;;;;60.53;30.45;;;;;;;17.56;97.67;101193.56;5007484;28;20088;-69
2023/05/22 08:27:50;;;;;;;58.70;31.02;;;;;;;17.67;97.01;101196.47;5003219;28;20387;-70
2023/05/22 08:30:16;;;;;;;50.78;28.10;;;;;;;17.82;95.43;101195.50;5007922;28;20041;-69
2023/05/22 08:32:41;;;;;;;66.57;31.20;;;;;;;17.69;95.48;101206.75;5008257;28;20025;-69
2023/05/22 08:35:07;;;;;;;54.72;29.20;;;;;;;17.58;95.54;101202.06;5006371;28;20519;-69
2023/05/22 08:37:33;;;;;;;47.50;26.42;;;;;;;17.65;96.47;101205.50;5005137;28;20018;-70
2023/05/22 08:39:58;;;;;;;51.55;28.55;;;;;;;17.72;95.21;101203.72;4992309;28;20700;-69
2023/05/22 08:42:24;;;;;;;52.88;29.42;;;;;;;17.73;94.51;101194.88;5007826;28;20038;-69
2023/05/22 08:44:49;;;;;;;55.35;29.23;;;;;;;17.56;95.18;101197.00;4987466;28;20178;-70
2023/05/22 08:47:15;;;;;;;53.20;29.70;;;;;;;17.67;95.43;101200.91;4987377;28;20034;-69
2023/05/22 08:49:41;;;;;;;63.03;31.02;;;;;;;17.67;95.81;101193.84;4994620;28;20049;-70
2023/05/22 08:52:20;;;;;;;55.78;28.10;;;;;;;17.67;96.15;101196.47;4988633;28;20489;-70
2023/05/22 08:54:51;;;;;;;56.10;29.58;;;;;;;17.72;95.81;101195.88;4993222;28;20129;-70
2023/05/22 08:57:18;;;;;;;60.63;31.90;;;;;;;17.85;94.80;101192.53;4994255;28;20519;-69
2023/05/22 08:59:44;;;;;;;59.97;31.67;;;;;;;17.79;93.68;101194.09;5005213;28;20057;-69
2023/05/22 09:02:11;;;;;;;56.28;30.80;;;;;;;17.82;93.78;101185.84;5006083;28;20404;-69
2023/05/22 09:04:40;;;;;;;57.70;30.25;;;;;;;17.76;95.01;101191.84;5004115;28;20056;-70
2023/05/22 09:07:05;;;;;;;59.45;30.80;;;;;;;17.92;94.70;101203.88;5008836;28;20115;-69
2023/05/22 09:09:35;;;;;;;60.40;30.88;;;;;;;18.06;94.02;101197.69;5009076;28;20037;-69
2023/05/22 09:12:01;;;;;;;58.85;31.23;;;;;;;18.02;94.51;101203.50;5005108;28;20048;-70
2023/05/22 09:14:26;;;;;;;50.00;29.10;;;;;;;18.08;93.24;101200.09;5006657;28;20072;-69
2023/05/22 09:16:53;;;;;;;59.70;30.80;;;;;;;18.11;92.70;101202.34;5006656;28;20025;-69
2023/05/22 09:19:19;;;;;;;54.78;29.38;;;;;;;18.11;92.93;101201.53;5005938;28;20053;-69
2023/05/22 09:21:46;;;;;;;53.05;28.08;;;;;;;18.18;93.23;101208.44;5009426;28;20073;-70
2023/05/22 09:24:12;;;;;;;60.45;30.83;;;;;;;18.28;92.59;101211.47;5007279;28;20048;-70
2023/05/22 09:26:38;;;;;;;55.53;30.00;;;;;;;18.42;91.95;101209.72;5010698;28;20022;-69
2023/05/22 09:29:06;;;;;;;57.60;30.58;;;;;;;18.57;90.52;101209.56;5004122;28;20685;-70
2023/05/22 09:31:36;;;;;;;51.28;28.30;;;;;;;18.63;90.18;101213.22;5009978;28;20034;-70
2023/05/22 09:34:03;;;;;;;53.45;30.63;;;;;;;18.58;90.13;101208.53;5007539;28;20140;-70
2023/05/22 09:36:33;;;;;;;58.85;30.05;;;;;;;18.51;90.86;101207.72;4989938;28;20030;-70
2023/05/22 09:39:00;;;;;;;53.50;29.70;;;;;;;18.60;89.99;101216.22;5005903;28;20044;-70
2023/05/22 09:41:29;;;;;;;55.58;30.67;;;;;;;18.62;89.71;101209.75;4992072;28;20034;-69
2023/05/22 09:43:54;;;;;;;55.45;30.70;;;;;;;18.52;90.12;101208.53;5007632;28;20058;-70
2023/05/22 09:46:20;;;;;;;51.40;28.50;;;;;;;18.52;90.45;101209.34;4987798;28;20107;-70
2023/05/22 09:48:52;;;;;;;55.10;30.08;;;;;;;18.60;90.19;101211.78;5003779;28;20038;-70
2023/05/22 09:51:25;;;;;;;55.65;31.88;;;;;;;18.73;89.70;101211.00;5010541;28;20051;-70
2023/05/22 09:53:55;;;;;;;50.08;28.40;;;;;;;18.76;89.32;101210.59;5007755;28;20065;-70
2023/05/22 09:56:22;;;;;;;54.00;31.75;;;;;;;18.82;88.26;101215.09;5010052;28;20097;-70
2023/05/22 09:58:51;;;;;;;58.13;32.38;;;;;;;18.78;88.63;101213.84;4997629;28;20037;-70
2023/05/22 10:01:18;;;;;;;61.10;31.40;;;;;;;18.79;88.71;101207.56;4994773;28;20061;-70
2023/05/22 10:03:46;;;;;;;59.13;31.58;;;;;;;18.99;88.79;101209.44;4988034;28;20038;-70
2023/05/22 10:06:13;;;;;;;59.63;32.05;;;;;;;19.15;87.35;101214.28;4991316;28;20198;-70
2023/05/22 10:08:43;;;;;;;57.78;31.85;;;;;;;19.23;86.79;101210.63;4971385;28;20038;-70
2023/05/22 10:11:09;;;;;;;55.78;29.38;;;;;;;19.37;86.62;101216.69;4990805;28;20085;-70
2023/05/22 10:13:36;;;;;;;54.35;30.17;;;;;;;19.39;86.16;101214.69;4987384;28;20516;-70
2023/05/22 10:16:03;;;;;;;50.20;29.35;;;;;;;19.64;86.18;101209.56;4985497;28;20042;-70
2023/05/22 10:18:29;;;;;;;55.45;29.20;;;;;;;19.62;85.76;101212.41;4987547;28;20043;-70
2023/05/22 10:20:56;;;;;;;57.80;30.27;;;;;;;19.67;86.09;101209.16;4991196;28;20026;-70
2023/05/22 10:23:24;;;;;;;54.90;31.75;;;;;;;19.78;85.59;101208.56;4977487;28;20044;-70
2023/05/22 10:25:51;;;;;;;58.63;31.70;;;;;;;19.84;84.18;101210.34;5006655;28;20045;-70
2023/05/22 10:28:26;;;;;;;49.25;29.42;;;;;;;20.04;83.34;101212.09;5006518;28;20089;-70
2023/05/22 10:31:00;;;;;;;54.38;27.63;;;;;;;19.97;83.83;101209.50;5001724;28;20051;-70
2023/05/22 10:33:50;;;;;;;53.58;29.90;;;;;;;20.08;83.13;101207.22;5000822;28;20524;-70
2023/05/22 10:36:25;;;;;;;51.53;30.23;;;;;;;20.34;83.34;101201.84;4988424;28;20499;-70
2023/05/22 10:38:57;;;;;;;56.42;29.38;;;;;;;20.37;81.98;101209.31;4985101;28;20036;-71
2023/05/22 10:41:22;;;;;;;58.22;30.85;;;;;;;20.52;81.77;101195.06;4991952;28;20275;-71
2023/05/22 10:43:49;;;;;;;52.38;27.08;;;;;;;20.74;82.46;101195.56;5005129;28;20672;-70
2023/05/22 10:46:15;;;;;;;58.25;30.33;;;;;;;20.97;81.20;101189.69;4990855;28;20042;-71
2023/05/22 10:48:46;;;;;;;60.63;31.30;;;;;;;21.07;80.56;101182.09;4984975;28;20092;-71
2023/05/22 10:51:19;;;;;;;56.45;28.83;;;;;;;21.37;79.49;101187.50;4988862;28;20023;-71
2023/05/22 10:53:57;;;;;;;55.55;31.35;;;;;;;21.52;76.80;101192.44;4985574;28;20051;-71
2023/05/22 10:56:22;;;;;;;54.85;29.08;;;;;;;21.76;75.31;101190.75;4986229;28;20153;-71
2023/05/22 10:59:06;;;;;;;49.33;28.70;;;;;;;22.02;76.21;101188.84;4984811;28;20066;-71
2023/05/22 11:01:39;;;;;;;44.42;27.45;;;;;;;22.09;74.34;101186.91;5001208;28;20035;-71
2023/05/22 11:04:14;;;;;;;49.63;27.88;;;;;;;21.98;75.13;101177.09;4985972;28;20047;-71
2023/05/22 11:07:01;;;;;;;51.72;29.88;;;;;;;22.01;75.36;101186.41;4972135;28;20027;-72
2023/05/22 11:09:37;;;;;;;54.35;28.60;;;;;;;22.23;75.22;101171.69;4987578;28;20572;-71
2023/05/22 11:12:19;;;;;;;51.97;27.98;;;;;;;22.68;73.28;101175.75;4990714;28;20077;-71